Time;durP1;ratioP1;P1;durP2;ratioP2;P2;SDS_P1;SDS_P2;PMS_P1;PMS_P2;Temp;Humidity;BMP_temperature;BMP_pressure;BME280_temperature;BME280_humidity;BME280_pressure;Samples;Min_cycle;Max_cycle;Signal;HPM_P1;HPM_P2
2022/03/20 00:01:26;;;;;;;14.98;6.60;;;6.30;52.90;;;;;;5060571;28;20118;-67
2022/03/20 00:03:54;;;;;;;12.93;6.35;;;6.30;52.70;;;;;;5066454;28;20115;-64
2022/03/20 00:06:21;;;;;;;16.55;7.32;;;6.40;52.00;;;;;;5066901;28;20107;-66
2022/03/20 00:08:52;;;;;;;12.60;6.28;;;6.40;52.00;;;;;;5069371;28;20052;-65
2022/03/20 00:11:19;;;;;;;16.45;7.38;;;6.50;51.70;;;;;;5069681;28;20040;-65
2022/03/20 00:13:46;;;;;;;14.82;7.35;;;6.50;51.40;;;;;;5070185;28;20068;-66
2022/03/20 00:16:15;;;;;;;15.90;6.85;;;6.50;51.70;;;;;;5067033;28;20122;-65
2022/03/20 00:18:42;;;;;;;12.95;7.25;;;6.50;51.80;;;;;;5065354;28;20036;-64
2022/03/20 00:21:11;;;;;;;14.65;7.43;;;6.60;51.90;;;;;;5070546;28;20556;-65
2022/03/20 00:23:38;;;;;;;15.77;7.78;;;6.60;50.80;;;;;;5067692;28;20135;-65
2022/03/20 00:26:05;;;;;;;15.48;6.72;;;6.60;50.90;;;;;;5067160;28;20051;-65
2022/03/20 00:28:33;;;;;;;18.20;7.80;;;6.60;50.80;;;;;;5066178;28;20064;-66
2022/03/20 00:31:01;;;;;;;17.90;6.55;;;6.60;50.80;;;;;;5057805;28;20569;-64
2022/03/20 00:33:30;;;;;;;12.38;7.38;;;6.60;50.90;;;;;;5066087;28;20097;-66
2022/03/20 00:35:57;;;;;;;16.90;6.65;;;6.60;50.60;;;;;;5071556;28;20135;-65
2022/03/20 00:38:25;;;;;;;15.43;7.63;;;6.60;50.80;;;;;;5058221;28;20488;-64
2022/03/20 00:40:52;;;;;;;17.55;7.10;;;6.60;51.00;;;;;;5054986;28;20056;-67
2022/03/20 00:43:19;;;;;;;15.75;7.75;;;6.60;51.00;;;;;;5063032;28;20040;-65
2022/03/20 00:45:46;;;;;;;15.43;7.93;;;6.60;51.10;;;;;;5052388;28;20059;-66
2022/03/20 00:48:13;;;;;;;18.88;7.35;;;6.60;51.10;;;;;;5055334;28;20176;-66
2022/03/20 00:50:41;;;;;;;13.82;6.55;;;6.60;51.30;;;;;;5062725;28;20569;-66
2022/03/20 00:53:09;;;;;;;16.90;8.25;;;6.60;51.30;;;;;;5068368;28;20541;-64
2022/03/20 00:55:36;;;;;;;14.85;7.03;;;6.60;51.40;;;;;;5064147;28;20051;-64
2022/03/20 00:58:03;;;;;;;16.30;8.02;;;6.60;51.40;;;;;;5065025;28;20119;-63
2022/03/20 01:00:32;;;;;;;17.92;8.77;;;6.60;51.70;;;;;;5060231;28;20068;-66
2022/03/20 01:03:00;;;;;;;16.02;7.70;;;6.60;51.90;;;;;;5042989;28;20052;-64
2022/03/20 01:05:27;;;;;;;19.02;8.10;;;6.50;51.90;;;;;;5056058;28;20041;-64
2022/03/20 01:07:55;;;;;;;16.13;7.40;;;6.60;51.80;;;;;;5050501;28;20040;-65
2022/03/20 01:10:22;;;;;;;16.90;8.25;;;6.60;51.50;;;;;;5057950;28;20040;-66
2022/03/20 01:12:49;;;;;;;14.43;7.20;;;6.60;51.20;;;;;;5056566;28;20053;-63
2022/03/20 01:15:16;;;;;;;16.48;7.85;;;6.60;51.20;;;;;;5056598;28;20044;-65
2022/03/20 01:17:43;;;;;;;16.52;7.80;;;6.70;51.20;;;;;;5067724;28;20551;-66
2022/03/20 01:20:11;;;;;;;17.17;7.03;;;6.70;50.70;;;;;;5058594;28;20037;-63
2022/03/20 01:22:40;;;;;;;18.60;7.75;;;6.70;50.70;;;;;;5059851;28;20163;-66
2022/03/20 01:25:09;;;;;;;15.40;7.43;;;6.70;50.90;;;;;;5061298;28;20040;-63
2022/03/20 01:27:36;;;;;;;15.85;7.70;;;6.70;50.90;;;;;;5045673;28;20049;-63
2022/03/20 01:30:04;;;;;;;20.42;7.63;;;6.70;51.00;;;;;;5053494;28;20038;-65
2022/03/20 01:32:31;;;;;;;18.88;8.65;;;6.70;50.90;;;;;;5072756;28;20037;-64
2022/03/20 01:34:58;;;;;;;18.83;8.60;;;6.70;50.70;;;;;;5061806;28;20048;-66
2022/03/20 01:37:25;;;;;;;17.05;7.35;;;6.70;51.00;;;;;;5067709;28;20105;-63
2022/03/20 01:39:53;;;;;;;17.02;8.70;;;6.70;51.00;;;;;;5047539;28;20075;-63
2022/03/20 01:42:22;;;;;;;16.88;8.68;;;6.80;51.00;;;;;;5061940;28;20048;-63
2022/03/20 01:44:50;;;;;;;16.48;8.65;;;6.80;51.10;;;;;;5066867;28;20093;-65
2022/03/20 01:47:17;;;;;;;17.88;7.75;;;6.80;51.20;;;;;;5066289;28;20140;-66
2022/03/20 01:49:44;;;;;;;19.52;9.43;;;6.80;51.40;;;;;;5062933;28;20052;-64
2022/03/20 01:52:11;;;;;;;16.98;7.93;;;6.80;51.30;;;;;;5072194;28;20072;-66
2022/03/20 01:54:38;;;;;;;16.40;7.68;;;6.80;51.20;;;;;;5067984;28;20071;-64
2022/03/20 01:57:07;;;;;;;16.52;9.20;;;6.80;51.20;;;;;;5068328;28;20045;-64
2022/03/20 01:59:35;;;;;;;15.98;8.40;;;6.80;51.30;;;;;;5068414;28;20053;-64
2022/03/20 02:02:03;;;;;;;17.13;8.23;;;6.90;51.10;;;;;;5074978;28;20120;-64
2022/03/20 02:04:30;;;;;;;18.95;8.50;;;6.80;51.20;;;;;;5075772;28;20044;-64
2022/03/20 02:06:57;;;;;;;19.65;8.77;;;6.80;51.60;;;;;;5079176;28;20066;-64
2022/03/20 02:09:24;;;;;;;20.98;8.70;;;6.80;51.30;;;;;;5076279;28;20040;-64
2022/03/20 02:11:53;;;;;;;16.27;7.60;;;6.80;51.40;;;;;;5074947;28;20597;-64
2022/03/20 02:14:20;;;;;;;17.42;8.60;;;6.80;51.40;;;;;;5075520;28;20047;-66
2022/03/20 02:16:48;;;;;;;17.48;9.00;;;6.80;51.30;;;;;;5069303;28;20044;-64
2022/03/20 02:19:15;;;;;;;19.05;8.75;;;6.80;51.20;;;;;;5071372;28;20044;-64
2022/03/20 02:21:45;;;;;;;15.77;7.97;;;6.80;51.30;;;;;;5068183;28;20056;-64
2022/03/20 02:24:38;;;;;;;17.63;8.63;;;6.80;51.30;;;;;;5076381;28;20051;-64
2022/03/20 02:27:09;;;;;;;18.70;9.55;;;6.80;51.30;;;;;;5072446;28;20079;-66
2022/03/20 02:29:36;;;;;;;15.85;8.70;;;6.80;51.30;;;;;;5076906;28;20044;-64
2022/03/20 02:32:06;;;;;;;16.55;9.35;;;6.80;51.40;;;;;;5075969;28;20054;-63
2022/03/20 02:34:34;;;;;;;17.27;9.10;;;6.80;51.50;;;;;;5075864;28;20131;-65
2022/03/20 02:37:03;;;;;;;16.35;8.55;;;6.70;51.80;;;;;;5071933;28;20044;-64
2022/03/20 02:39:31;;;;;;;16.88;9.45;;;6.70;51.80;;;;;;5069249;28;20050;-64
2022/03/20 02:42:04;;;;;;;17.58;8.77;;;6.60;51.80;;;;;;5068017;28;20040;-64
2022/03/20 02:44:56;;;;;;;18.00;8.25;;;6.70;51.60;;;;;;5067473;28;20039;-68
2022/03/20 02:47:26;;;;;;;19.13;8.88;;;6.60;51.70;;;;;;5076655;28;20519;-65
2022/03/20 02:49:55;;;;;;;19.13;9.57;;;6.60;51.90;;;;;;5085477;28;20075;-64
2022/03/20 02:52:28;;;;;;;17.25;8.48;;;6.60;51.90;;;;;;5073284;28;20044;-63
2022/03/20 02:54:55;;;;;;;16.88;8.52;;;6.60;52.10;;;;;;5077716;28;20044;-63
2022/03/20 02:57:22;;;;;;;18.58;8.73;;;6.60;52.20;;;;;;5080614;28;20090;-65
2022/03/20 02:59:49;;;;;;;21.60;9.63;;;6.60;52.30;;;;;;5082456;28;20040;-65
2022/03/20 03:02:16;;;;;;;23.45;9.75;;;6.60;52.20;;;;;;5080189;28;20250;-65
2022/03/20 03:04:43;;;;;;;20.38;9.85;;;6.60;52.30;;;;;;5083684;28;20543;-63
2022/03/20 03:07:10;;;;;;;18.40;8.93;;;6.50;52.50;;;;;;5084503;28;20044;-65
2022/03/20 03:12:24;;;;;;;20.63;9.55;;;6.50;52.60;;;;;;5080650;28;20056;-65
2022/03/20 03:17:36;;;;;;;23.08;9.43;;;6.50;52.40;;;;;;5082274;28;20563;-64
2022/03/20 03:20:03;;;;;;;18.42;9.07;;;6.50;52.50;;;;;;5074450;28;20577;-63
2022/03/20 03:22:30;;;;;;;18.70;8.80;;;6.50;52.50;;;;;;5068254;28;20530;-63
2022/03/20 03:24:58;;;;;;;19.17;9.10;;;6.50;52.50;;;;;;5078689;28;20127;-64
2022/03/20 03:27:26;;;;;;;17.23;7.75;;;6.50;52.60;;;;;;5083851;28;20059;-64
2022/03/20 03:29:53;;;;;;;22.85;9.73;;;6.50;52.70;;;;;;5064111;28;20124;-64
2022/03/20 03:32:20;;;;;;;16.70;9.60;;;6.50;52.80;;;;;;5075947;28;20420;-64
2022/03/20 03:37:28;;;;;;;17.58;9.20;;;6.50;52.80;;;;;;5050725;28;20059;-65
2022/03/20 03:39:55;;;;;;;19.17;8.63;;;6.50;53.00;;;;;;5083380;28;20052;-66
2022/03/20 03:42:23;;;;;;;18.10;8.75;;;6.50;53.00;;;;;;5081106;28;20050;-67
2022/03/20 03:44:51;;;;;;;16.13;8.88;;;6.40;52.90;;;;;;5083665;28;20044;-63
2022/03/20 03:47:18;;;;;;;21.83;9.35;;;6.50;53.10;;;;;;5076629;28;20075;-64
2022/03/20 03:49:45;;;;;;;23.15;10.38;;;6.40;53.10;;;;;;5070701;28;20063;-65
2022/03/20 03:52:14;;;;;;;20.08;9.73;;;6.40;53.10;;;;;;5073578;28;20086;-64
2022/03/20 03:54:41;;;;;;;19.08;8.45;;;6.40;53.20;;;;;;5068679;28;20045;-64
2022/03/20 03:57:09;;;;;;;17.60;9.18;;;6.40;53.20;;;;;;5070957;28;20494;-64
2022/03/20 03:59:37;;;;;;;19.23;10.25;;;6.40;53.20;;;;;;5071368;28;20048;-65
2022/03/20 04:02:05;;;;;;;22.15;8.48;;;6.40;53.20;;;;;;5068101;28;20163;-64
2022/03/20 04:04:32;;;;;;;18.90;8.20;;;6.40;53.10;;;;;;5074456;28;20040;-67
2022/03/20 04:06:59;;;;;;;21.60;10.35;;;6.40;53.30;;;;;;5068105;28;20048;-66
2022/03/20 04:09:26;;;;;;;19.08;10.02;;;6.40;53.40;;;;;;5072041;28;20048;-65
2022/03/20 04:11:53;;;;;;;16.70;9.25;;;6.40;53.50;;;;;;5067487;28;20577;-65
2022/03/20 04:14:21;;;;;;;19.30;9.48;;;6.40;53.60;;;;;;5071243;28;20058;-66
2022/03/20 04:16:50;;;;;;;19.25;10.07;;;6.40;53.70;;;;;;5069440;28;20038;-66
2022/03/20 04:19:17;;;;;;;19.20;9.43;;;6.40;53.80;;;;;;5074514;28;20075;-65
2022/03/20 04:21:44;;;;;;;22.45;9.77;;;6.40;53.70;;;;;;5068450;28;20048;-66
2022/03/20 04:24:11;;;;;;;16.17;8.75;;;6.40;53.90;;;;;;5068209;28;20040;-64
2022/03/20 04:26:46;;;;;;;22.88;9.95;;;6.30;53.80;;;;;;5074320;28;20048;-65
2022/03/20 04:29:13;;;;;;;21.77;9.98;;;6.30;54.00;;;;;;5073520;28;20040;-63
2022/03/20 04:31:41;;;;;;;24.05;9.82;;;6.30;54.10;;;;;;5072338;28;20091;-65
2022/03/20 04:34:10;;;;;;;19.60;9.18;;;6.30;54.20;;;;;;5066372;28;20068;-65
2022/03/20 04:36:37;;;;;;;17.95;8.50;;;6.30;54.20;;;;;;5073015;28;20060;-65
2022/03/20 04:39:04;;;;;;;22.10;9.95;;;6.30;54.40;;;;;;5071510;28;20170;-66
2022/03/20 04:41:31;;;;;;;27.00;9.65;;;6.20;54.50;;;;;;5066955;28;20072;-65
2022/03/20 04:44:00;;;;;;;22.65;10.15;;;6.20;54.50;;;;;;5076625;28;20048;-64
2022/03/20 04:46:28;;;;;;;22.42;9.00;;;6.20;54.60;;;;;;5072354;28;20062;-63
2022/03/20 04:59:54;;;;;;;19.38;8.90;;;6.20;54.90;;;;;;5074525;28;20070;-64
2022/03/20 05:02:23;;;;;;;16.65;9.63;;;6.10;55.00;;;;;;5068497;28;20050;-66
2022/03/20 05:04:51;;;;;;;20.90;10.35;;;6.10;55.10;;;;;;5074979;28;20033;-64
2022/03/20 05:07:20;;;;;;;17.92;9.68;;;6.10;55.30;;;;;;5073090;28;20060;-64
2022/03/20 05:15:16;;;;;;;18.90;9.55;;;6.10;55.30;;;;;;5074269;28;20232;-65
2022/03/20 05:17:43;;;;;;;20.90;9.98;;;6.10;55.30;;;;;;5070041;28;20056;-65
2022/03/20 05:20:12;;;;;;;21.25;10.43;;;6.10;55.30;;;;;;5070104;28;20035;-65
2022/03/20 05:22:41;;;;;;;16.23;9.30;;;6.00;55.50;;;;;;5072375;28;20494;-64
2022/03/20 05:25:10;;;;;;;19.05;9.30;;;6.00;55.50;;;;;;5071034;28;20048;-64
2022/03/20 05:27:38;;;;;;;21.67;9.43;;;6.00;55.70;;;;;;5071501;28;20052;-63
2022/03/20 05:30:07;;;;;;;19.05;10.38;;;6.00;55.70;;;;;;5072628;28;20045;-65
2022/03/20 05:32:35;;;;;;;19.73;9.70;;;6.00;55.80;;;;;;5069580;28;20486;-64
2022/03/20 05:35:05;;;;;;;23.88;11.13;;;6.00;55.80;;;;;;5074728;28;20050;-64
2022/03/20 05:37:32;;;;;;;21.52;9.95;;;6.00;55.80;;;;;;5073279;28;20114;-64
2022/03/20 05:40:00;;;;;;;23.60;11.20;;;6.00;56.00;;;;;;5071955;28;20044;-64
2022/03/20 05:42:28;;;;;;;23.25;10.00;;;6.00;56.00;;;;;;5072327;28;20051;-65
2022/03/20 05:44:55;;;;;;;22.20;10.43;;;6.00;56.20;;;;;;5075801;28;20078;-67
2022/03/20 05:47:22;;;;;;;22.40;8.57;;;6.00;56.30;;;;;;5073509;28;20044;-65
2022/03/20 05:49:49;;;;;;;22.50;9.00;;;6.00;56.20;;;;;;5075308;28;20040;-64
2022/03/20 05:52:16;;;;;;;25.13;9.75;;;6.00;56.20;;;;;;5077547;28;20041;-65
2022/03/20 05:54:44;;;;;;;23.85;9.57;;;6.00;56.10;;;;;;5073935;28;20595;-66
2022/03/20 05:59:59;;;;;;;22.27;10.27;;;6.10;56.10;;;;;;5057031;28;20049;-66
2022/03/20 06:02:26;;;;;;;24.48;11.90;;;6.10;56.10;;;;;;5079705;28;20040;-64
2022/03/20 06:04:53;;;;;;;20.25;10.75;;;6.10;56.10;;;;;;5082203;28;20056;-64
2022/03/20 06:07:20;;;;;;;28.92;9.95;;;6.20;56.20;;;;;;5081996;28;20102;-64
2022/03/20 06:09:47;;;;;;;19.83;10.55;;;6.20;56.30;;;;;;5078340;28;20506;-65
2022/03/20 06:12:15;;;;;;;19.75;10.00;;;6.20;56.20;;;;;;5081942;28;20111;-65
2022/03/20 06:14:42;;;;;;;25.27;11.63;;;6.30;56.20;;;;;;5083431;28;20127;-66
2022/03/20 06:17:12;;;;;;;22.30;9.50;;;6.30;56.10;;;;;;5075823;28;20052;-66
2022/03/20 06:19:39;;;;;;;21.50;10.85;;;6.30;56.00;;;;;;5086124;28;20043;-63
2022/03/20 06:22:06;;;;;;;26.00;11.23;;;6.40;56.00;;;;;;5077105;28;20059;-64
2022/03/20 06:24:33;;;;;;;26.05;10.25;;;6.40;56.10;;;;;;5082193;28;20463;-64
2022/03/20 06:27:03;;;;;;;24.55;11.88;;;6.40;56.10;;;;;;5083050;28;20048;-64
2022/03/20 06:29:31;;;;;;;23.35;10.50;;;6.40;56.20;;;;;;5083272;28;20553;-64
2022/03/20 06:31:58;;;;;;;23.42;10.52;;;6.50;56.20;;;;;;5085782;28;20055;-67
2022/03/20 06:34:25;;;;;;;21.67;9.85;;;6.60;56.20;;;;;;5081088;28;20060;-64
2022/03/20 06:36:55;;;;;;;22.42;10.10;;;6.60;56.30;;;;;;5082023;28;20056;-65
2022/03/20 06:39:22;;;;;;;22.10;11.85;;;6.60;56.20;;;;;;5077870;28;20048;-64
2022/03/20 06:41:50;;;;;;;26.40;11.43;;;6.70;56.10;;;;;;5062217;28;20512;-64
2022/03/20 06:44:17;;;;;;;20.48;10.60;;;6.70;55.90;;;;;;5079267;28;20071;-65
2022/03/20 06:46:46;;;;;;;17.38;9.60;;;6.70;55.90;;;;;;5074175;28;20048;-64
2022/03/20 06:49:13;;;;;;;22.98;10.35;;;6.80;55.80;;;;;;5071516;28;20518;-65
2022/03/20 06:51:41;;;;;;;23.27;11.20;;;6.80;55.70;;;;;;5074698;28;20048;-64
2022/03/20 06:54:08;;;;;;;21.73;9.57;;;6.90;55.50;;;;;;5076024;28;20119;-64
2022/03/20 06:56:35;;;;;;;21.00;10.27;;;6.90;55.60;;;;;;5076412;28;20079;-65
2022/03/20 06:59:02;;;;;;;24.42;11.00;;;7.00;55.40;;;;;;5049055;28;20133;-66
2022/03/20 07:01:30;;;;;;;24.60;10.20;;;7.00;55.40;;;;;;5069733;28;20053;-63
2022/03/20 07:03:58;;;;;;;24.55;11.10;;;7.10;55.30;;;;;;5069457;28;20056;-64
2022/03/20 07:06:29;;;;;;;21.33;9.90;;;7.10;55.00;;;;;;5072190;28;20395;-64
2022/03/20 07:08:59;;;;;;;22.23;10.83;;;7.10;54.90;;;;;;5073368;28;20045;-65
2022/03/20 07:11:32;;;;;;;22.42;10.95;;;7.10;54.90;;;;;;5075412;28;20052;-65
2022/03/20 07:14:00;;;;;;;19.83;10.63;;;7.20;54.90;;;;;;5072753;28;20098;-66
2022/03/20 07:16:30;;;;;;;23.40;11.15;;;7.20;54.80;;;;;;5076050;28;20059;-65
2022/03/20 07:18:59;;;;;;;20.88;10.45;;;7.30;54.80;;;;;;5072373;28;20048;-65
2022/03/20 07:21:28;;;;;;;22.30;10.32;;;7.30;54.70;;;;;;5073052;28;20395;-64
2022/03/20 07:23:57;;;;;;;21.15;10.75;;;7.30;54.60;;;;;;5070680;28;20053;-64
2022/03/20 07:31:54;;;;;;;23.63;10.20;;;7.40;54.50;;;;;;5070603;28;20055;-64
2022/03/20 07:34:23;;;;;;;23.65;10.95;;;7.40;54.60;;;;;;5072766;28;20104;-66
2022/03/20 07:36:50;;;;;;;20.80;10.52;;;7.50;54.40;;;;;;5069655;28;20068;-63
2022/03/20 07:39:17;;;;;;;24.58;11.05;;;7.50;54.40;;;;;;5070414;28;20051;-63
2022/03/20 07:41:44;;;;;;;22.08;11.00;;;7.50;54.60;;;;;;5066715;28;20039;-63
2022/03/20 07:44:12;;;;;;;24.75;11.23;;;7.50;54.60;;;;;;5070700;28;20048;-63
2022/03/20 07:46:40;;;;;;;25.90;12.73;;;7.60;54.60;;;;;;5070164;28;20068;-65
2022/03/20 07:49:08;;;;;;;25.02;11.93;;;7.60;54.70;;;;;;5073440;28;20045;-63
2022/03/20 07:51:37;;;;;;;31.65;12.07;;;7.70;54.50;;;;;;5069899;28;20041;-64
2022/03/20 07:54:04;;;;;;;25.48;12.43;;;7.80;54.40;;;;;;5075679;28;20040;-66
2022/03/20 07:56:34;;;;;;;23.95;10.38;;;7.80;54.30;;;;;;5071254;28;20044;-66
2022/03/20 07:59:05;;;;;;;19.60;10.15;;;7.90;54.00;;;;;;5071683;28;20036;-65
2022/03/20 08:01:33;;;;;;;20.83;9.82;;;8.00;53.70;;;;;;5067096;28;20045;-65
2022/03/20 08:04:00;;;;;;;20.48;11.18;;;8.10;53.40;;;;;;5077410;28;20043;-63
2022/03/20 08:06:28;;;;;;;22.10;11.20;;;8.20;53.30;;;;;;5072668;28;20145;-63
2022/03/20 08:08:59;;;;;;;20.60;10.25;;;8.20;53.00;;;;;;5069936;28;20049;-64
2022/03/20 08:11:27;;;;;;;22.88;10.57;;;8.30;53.00;;;;;;5073593;28;20040;-64
2022/03/20 08:13:54;;;;;;;23.50;11.27;;;8.40;53.20;;;;;;5075728;28;20041;-67
2022/03/20 08:16:22;;;;;;;20.77;10.25;;;8.50;53.20;;;;;;5071147;28;20047;-64
2022/03/20 08:18:49;;;;;;;20.27;10.20;;;8.50;53.10;;;;;;5075085;28;20471;-64
2022/03/20 08:21:16;;;;;;;21.27;11.23;;;8.60;53.10;;;;;;5069823;28;20045;-64
2022/03/20 08:23:44;;;;;;;23.08;11.57;;;8.70;52.70;;;;;;5072581;28;20163;-63
2022/03/20 08:26:12;;;;;;;24.08;11.30;;;8.70;52.40;;;;;;5077858;28;20050;-64
2022/03/20 08:28:41;;;;;;;18.48;10.27;;;8.80;52.30;;;;;;5071097;28;20504;-65
2022/03/20 08:31:09;;;;;;;24.50;11.73;;;8.80;52.00;;;;;;5068531;28;20080;-65
2022/03/20 08:33:36;;;;;;;21.42;10.50;;;8.90;52.40;;;;;;5072081;28;20044;-64
2022/03/20 08:36:05;;;;;;;21.58;9.98;;;9.00;52.50;;;;;;5072881;28;20040;-67
2022/03/20 08:38:32;;;;;;;24.85;10.88;;;9.10;52.00;;;;;;5069110;28;20044;-65
2022/03/20 08:40:59;;;;;;;23.10;11.43;;;9.10;52.10;;;;;;5070513;28;20040;-65
2022/03/20 08:43:28;;;;;;;23.63;11.23;;;9.20;51.90;;;;;;5071235;28;20051;-65
2022/03/20 08:45:55;;;;;;;22.73;11.52;;;9.20;52.00;;;;;;5067960;28;20041;-64
2022/03/20 08:48:22;;;;;;;20.17;10.77;;;9.30;51.50;;;;;;5070140;28;20044;-65
2022/03/20 08:50:49;;;;;;;24.02;11.38;;;9.40;51.20;;;;;;5075952;28;20040;-65
2022/03/20 08:53:18;;;;;;;21.27;10.25;;;9.50;51.00;;;;;;5062090;28;20391;-66
2022/03/20 08:55:45;;;;;;;19.58;10.82;;;9.60;51.00;;;;;;5067497;28;20051;-66
2022/03/20 08:58:12;;;;;;;23.23;12.18;;;9.60;50.90;;;;;;5063958;28;20396;-65
2022/03/20 09:00:42;;;;;;;21.20;10.55;;;9.70;50.80;;;;;;5068304;28;20067;-65
2022/03/20 09:03:10;;;;;;;19.35;10.82;;;9.70;50.90;;;;;;5067735;28;20119;-67
2022/03/20 09:05:38;;;;;;;22.02;11.45;;;9.80;51.00;;;;;;5066130;28;20052;-65
2022/03/20 09:08:05;;;;;;;23.00;11.35;;;9.80;51.20;;;;;;5070608;28;20063;-67
2022/03/20 09:10:33;;;;;;;24.10;11.88;;;9.90;51.10;;;;;;5067414;28;20060;-67
2022/03/20 09:13:00;;;;;;;19.40;8.98;;;10.00;51.10;;;;;;5068158;28;20052;-66
2022/03/20 09:15:31;;;;;;;24.33;12.07;;;10.10;51.10;;;;;;5071257;28;20124;-67
2022/03/20 09:20:45;;;;;;;23.23;11.77;;;10.20;50.80;;;;;;5071639;28;20045;-65
2022/03/20 09:23:14;;;;;;;25.65;11.55;;;10.20;50.80;;;;;;5067111;28;20057;-64
2022/03/20 09:25:41;;;;;;;24.48;12.32;;;10.30;51.10;;;;;;5071800;28;20039;-65
2022/03/20 09:28:09;;;;;;;22.45;11.43;;;10.40;50.70;;;;;;5067228;28;20213;-65
2022/03/20 09:30:39;;;;;;;23.08;11.65;;;10.40;50.10;;;;;;5066860;28;20080;-67
2022/03/20 09:33:08;;;;;;;22.13;10.93;;;10.40;50.00;;;;;;5069094;28;20501;-66
2022/03/20 09:35:35;;;;;;;20.90;11.23;;;10.50;50.40;;;;;;5068763;28;20044;-66
2022/03/20 09:38:04;;;;;;;20.35;10.30;;;10.60;50.10;;;;;;5070240;28;20048;-67
2022/03/20 09:40:34;;;;;;;21.40;10.73;;;10.60;50.00;;;;;;5071747;28;20127;-65
2022/03/20 09:43:01;;;;;;;17.80;9.70;;;10.70;49.70;;;;;;5073537;28;20402;-65
2022/03/20 09:45:28;;;;;;;21.15;10.18;;;10.70;50.00;;;;;;5071896;28;20064;-65
2022/03/20 09:47:56;;;;;;;21.42;11.77;;;10.80;50.30;;;;;;5053296;28;20543;-65
2022/03/20 09:50:25;;;;;;;19.33;10.32;;;10.80;50.30;;;;;;5052438;28;20044;-66
2022/03/20 09:52:52;;;;;;;18.85;10.23;;;10.90;50.30;;;;;;5052688;28;20127;-67
2022/03/20 09:55:19;;;;;;;21.08;10.98;;;11.00;50.20;;;;;;5036081;28;20406;-67
2022/03/20 09:57:46;;;;;;;22.33;11.48;;;11.10;49.80;;;;;;5050323;28;20122;-66
2022/03/20 10:00:16;;;;;;;21.17;12.05;;;11.10;49.70;;;;;;5048808;28;20052;-68
2022/03/20 10:02:43;;;;;;;17.10;9.65;;;11.10;49.60;;;;;;5050668;28;20127;-66
2022/03/20 10:05:11;;;;;;;21.67;11.15;;;11.20;49.80;;;;;;5033498;28;20592;-67
2022/03/20 10:07:43;;;;;;;24.55;10.57;;;11.20;49.50;;;;;;5049317;28;20048;-66
2022/03/20 10:10:13;;;;;;;20.30;10.43;;;11.30;49.60;;;;;;5032823;28;20964;-66
2022/03/20 10:12:43;;;;;;;22.55;11.75;;;11.40;49.30;;;;;;5050024;28;20131;-68
2022/03/20 10:15:11;;;;;;;20.02;10.85;;;11.40;48.80;;;;;;5051389;28;20128;-67
2022/03/20 10:17:39;;;;;;;20.83;10.90;;;11.50;48.50;;;;;;5051263;28;20057;-66
2022/03/20 10:20:18;;;;;;;21.27;10.45;;;11.50;48.60;;;;;;5052420;28;20075;-68
2022/03/20 10:22:47;;;;;;;15.07;9.82;;;11.50;48.70;;;;;;5049917;28;20052;-67
2022/03/20 10:25:18;;;;;;;20.48;10.85;;;11.60;48.80;;;;;;5049522;28;20590;-66
2022/03/20 10:27:57;;;;;;;22.25;11.05;;;11.60;48.60;;;;;;5052328;28;20483;-66
2022/03/20 10:30:25;;;;;;;21.60;10.70;;;11.70;49.00;;;;;;5049462;28;20053;-68
2022/03/20 10:32:52;;;;;;;17.55;9.93;;;11.70;48.50;;;;;;5033649;28;20060;-67
2022/03/20 10:35:19;;;;;;;22.83;10.38;;;11.80;47.70;;;;;;5052567;28;20099;-66
2022/03/20 10:37:54;;;;;;;21.67;11.30;;;11.80;47.60;;;;;;5034398;28;20417;-68
2022/03/20 10:40:24;;;;;;;24.15;11.32;;;11.90;47.60;;;;;;5051799;28;20047;-67
2022/03/20 10:43:12;;;;;;;18.40;9.98;;;11.90;47.90;;;;;;5047592;28;20091;-66
2022/03/20 10:46:00;;;;;;;17.38;9.70;;;11.90;48.30;;;;;;5049126;28;20080;-68
2022/03/20 10:48:35;;;;;;;23.90;11.90;;;11.90;48.00;;;;;;5052934;28;20490;-67
2022/03/20 10:51:03;;;;;;;19.20;9.57;;;12.00;47.70;;;;;;5059902;28;20045;-67
2022/03/20 10:53:31;;;;;;;22.50;10.18;;;12.00;47.60;;;;;;5056363;28;20422;-66
2022/03/20 10:56:04;;;;;;;19.08;10.93;;;12.00;47.80;;;;;;5054058;28;20115;-68
2022/03/20 10:58:32;;;;;;;22.38;10.63;;;11.90;47.90;;;;;;5057814;28;20103;-68
2022/03/20 11:00:58;;;;;;;21.50;10.95;;;11.90;47.50;;;;;;5055637;28;20036;-69
2022/03/20 11:03:27;;;;;;;18.52;9.82;;;11.90;47.60;;;;;;5054738;28;20440;-67
2022/03/20 11:05:54;;;;;;;20.75;9.50;;;12.00;47.70;;;;;;5056149;28;20441;-69
2022/03/20 11:08:23;;;;;;;15.98;9.55;;;12.00;47.90;;;;;;5052915;28;20171;-69
2022/03/20 11:10:52;;;;;;;17.58;9.50;;;12.10;47.70;;;;;;5057826;28;20056;-67
2022/03/20 11:13:21;;;;;;;21.67;10.45;;;12.10;47.60;;;;;;5055387;28;20056;-68
2022/03/20 11:15:49;;;;;;;20.95;10.30;;;12.10;47.30;;;;;;5058156;28;20056;-69
2022/03/20 11:18:16;;;;;;;15.93;9.40;;;12.20;47.70;;;;;;5057963;28;20059;-66
2022/03/20 11:20:47;;;;;;;18.77;10.27;;;12.20;47.90;;;;;;5036763;28;20102;-67
2022/03/20 11:23:15;;;;;;;22.40;11.02;;;12.20;48.10;;;;;;5061413;28;20072;-67
2022/03/20 11:25:45;;;;;;;17.98;9.05;;;12.20;48.00;;;;;;5060184;28;20094;-67
2022/03/20 11:28:15;;;;;;;17.67;9.70;;;12.20;47.90;;;;;;5059369;28;20045;-66
2022/03/20 11:30:45;;;;;;;27.63;11.10;;;12.20;47.90;;;;;;5059767;28;20048;-66
2022/03/20 11:33:15;;;;;;;18.55;9.75;;;12.30;48.10;;;;;;5054971;28;20478;-67
2022/03/20 11:35:42;;;;;;;17.48;8.77;;;12.30;48.10;;;;;;5058396;28;20962;-67
2022/03/20 11:38:18;;;;;;;18.58;9.23;;;12.30;48.20;;;;;;5060609;28;20048;-67
2022/03/20 11:41:13;;;;;;;17.27;9.70;;;12.30;48.30;;;;;;5036435;28;20472;-69
2022/03/20 11:43:44;;;;;;;20.45;9.90;;;12.40;48.20;;;;;;4993796;28;20996;-68
2022/03/20 11:46:17;;;;;;;19.25;9.13;;;12.40;48.40;;;;;;5060328;28;20053;-67
2022/03/20 11:48:46;;;;;;;15.80;8.80;;;12.40;48.40;;;;;;5073328;28;20047;-67
2022/03/20 11:51:14;;;;;;;20.27;9.98;;;12.50;48.30;;;;;;5069670;28;20053;-68
2022/03/20 11:53:42;;;;;;;18.50;10.27;;;12.50;47.80;;;;;;5068411;28;20110;-68
2022/03/20 11:56:09;;;;;;;18.35;9.35;;;12.50;47.80;;;;;;5067401;28;20033;-67
2022/03/20 11:58:37;;;;;;;21.92;10.32;;;12.60;47.90;;;;;;5073532;28;20506;-68
2022/03/20 12:01:07;;;;;;;18.65;9.55;;;12.60;47.60;;;;;;5067527;28;20474;-67
2022/03/20 12:03:48;;;;;;;16.40;8.90;;;12.60;47.80;;;;;;5065946;28;20158;-68
2022/03/20 12:06:52;;;;;;;18.80;10.15;;;12.60;47.80;;;;;;5074390;28;20109;-67
2022/03/20 12:10:13;;;;;;;19.83;9.35;;;12.60;47.90;;;;;;5073922;28;20144;-66
2022/03/20 12:12:59;;;;;;;16.65;8.77;;;12.60;48.20;;;;;;4995430;28;20057;-66
2022/03/20 12:15:29;;;;;;;17.70;9.20;;;12.60;48.30;;;;;;5068972;28;20049;-67
2022/03/20 12:18:00;;;;;;;18.25;9.60;;;12.60;48.20;;;;;;5070341;28;20051;-67
2022/03/20 12:20:59;;;;;;;19.70;9.35;;;12.70;48.10;;;;;;5068166;28;20048;-69
2022/03/20 12:23:39;;;;;;;15.13;8.60;;;12.70;48.00;;;;;;5070466;28;20044;-67
2022/03/20 12:26:30;;;;;;;18.90;8.90;;;12.70;48.20;;;;;;5073556;28;20405;-68
2022/03/20 12:29:32;;;;;;;20.88;10.48;;;12.70;48.20;;;;;;5069962;28;20143;-66
2022/03/20 12:32:01;;;;;;;18.88;10.32;;;12.70;48.10;;;;;;5076537;28;20043;-68
2022/03/20 12:34:31;;;;;;;17.00;9.27;;;12.70;48.40;;;;;;5077603;28;20490;-69
2022/03/20 12:37:32;;;;;;;19.10;9.93;;;12.70;48.60;;;;;;5072424;28;20442;-67
2022/03/20 12:40:08;;;;;;;17.92;8.70;;;12.70;48.70;;;;;;5073889;28;20127;-67
2022/03/20 12:42:36;;;;;;;13.90;9.07;;;12.70;48.70;;;;;;5060983;28;20403;-67
2022/03/20 12:45:08;;;;;;;20.58;10.02;;;12.70;48.50;;;;;;5065725;28;20537;-68
2022/03/20 12:47:36;;;;;;;17.25;9.13;;;12.70;48.60;;;;;;5055098;28;20094;-68
2022/03/20 12:50:09;;;;;;;15.00;8.75;;;12.70;48.50;;;;;;5061059;28;20509;-67
2022/03/20 12:52:39;;;;;;;18.10;8.93;;;12.70;48.70;;;;;;5063575;28;20047;-68
2022/03/20 12:55:10;;;;;;;17.90;9.05;;;12.70;49.00;;;;;;5054541;28;20044;-68
2022/03/20 12:57:41;;;;;;;20.05;9.45;;;12.70;49.10;;;;;;5065964;28;20049;-68
2022/03/20 13:00:14;;;;;;;17.17;9.05;;;12.70;49.20;;;;;;5067279;28;20457;-68
2022/03/20 13:03:03;;;;;;;18.23;9.25;;;12.70;49.30;;;;;;5070025;28;20044;-67
2022/03/20 13:05:33;;;;;;;20.30;9.10;;;12.70;49.50;;;;;;5065624;28;20057;-67
2022/03/20 13:08:01;;;;;;;17.85;9.32;;;12.60;49.50;;;;;;5054428;28;20045;-67
2022/03/20 13:10:36;;;;;;;20.38;10.82;;;12.70;49.50;;;;;;5070840;28;20041;-67
2022/03/20 13:13:05;;;;;;;22.88;10.93;;;12.70;49.60;;;;;;5072653;28;20044;-67
2022/03/20 13:15:34;;;;;;;20.63;11.30;;;12.60;49.80;;;;;;5064303;28;20497;-66
2022/03/20 13:18:08;;;;;;;21.10;11.57;;;12.70;50.00;;;;;;5060329;28;20158;-67
2022/03/20 13:20:38;;;;;;;26.65;12.68;;;12.60;50.10;;;;;;5071206;28;20129;-65
2022/03/20 13:23:11;;;;;;;21.00;11.02;;;12.70;49.90;;;;;;5074788;28;20063;-67
2022/03/20 13:25:40;;;;;;;21.70;11.55;;;12.70;50.00;;;;;;5069163;28;20055;-67